sensor_id;sensor_type;location;lat;lon;timestamp;temperature;humidity
34542;DHT22;20784;51.332;12.410;2023-06-10T00:00:24;20.50;99.90
34542;DHT22;20784;51.332;12.410;2023-06-10T00:02:53;20.50;99.90
34542;DHT22;20784;51.332;12.410;2023-06-10T00:05:27;20.60;99.90
34542;DHT22;20784;51.332;12.410;2023-06-10T00:07:58;20.50;99.90
34542;DHT22;20784;51.332;12.410;2023-06-10T00:10:25;20.40;99.90
34542;DHT22;20784;51.332;12.410;2023-06-10T00:13:06;20.40;99.90
34542;DHT22;20784;51.332;12.410;2023-06-10T00:15:34;20.40;99.90
34542;DHT22;20784;51.332;12.410;2023-06-10T00:18:03;20.30;99.90
34542;DHT22;20784;51.332;12.410;2023-06-10T00:20:30;20.30;99.90
34542;DHT22;20784;51.332;12.410;2023-06-10T00:22:57;20.30;99.90
34542;DHT22;20784;51.332;12.410;2023-06-10T00:25:27;20.30;99.90
34542;DHT22;20784;51.332;12.410;2023-06-10T00:27:56;20.20;99.90
34542;DHT22;20784;51.332;12.410;2023-06-10T00:30:22;20.20;99.90
34542;DHT22;20784;51.332;12.410;2023-06-10T00:32:47;20.20;99.90
34542;DHT22;20784;51.332;12.410;2023-06-10T00:35:15;20.10;99.90
34542;DHT22;20784;51.332;12.410;2023-06-10T00:37:44;20.10;99.90
34542;DHT22;20784;51.332;12.410;2023-06-10T00:40:15;20.00;99.90
34542;DHT22;20784;51.332;12.410;2023-06-10T00:42:44;19.90;99.90
34542;DHT22;20784;51.332;12.410;2023-06-10T00:45:09;19.90;99.90
34542;DHT22;20784;51.332;12.410;2023-06-10T00:47:35;19.90;99.90
34542;DHT22;20784;51.332;12.410;2023-06-10T00:50:05;19.80;99.90
34542;DHT22;20784;51.332;12.410;2023-06-10T00:52:31;19.80;99.90
34542;DHT22;20784;51.332;12.410;2023-06-10T00:55:00;19.70;99.90
34542;DHT22;20784;51.332;12.410;2023-06-10T00:57:31;19.70;99.90
34542;DHT22;20784;51.332;12.410;2023-06-10T01:00:00;19.60;99.90
34542;DHT22;20784;51.332;12.410;2023-06-10T01:02:27;19.50;99.90
34542;DHT22;20784;51.332;12.410;2023-06-10T01:04:53;19.60;99.90
34542;DHT22;20784;51.332;12.410;2023-06-10T01:07:47;19.50;99.90
34542;DHT22;20784;51.332;12.410;2023-06-10T01:10:33;19.40;99.90
34542;DHT22;20784;51.332;12.410;2023-06-10T01:13:05;19.50;99.90
34542;DHT22;20784;51.332;12.410;2023-06-10T01:15:32;19.40;99.90
34542;DHT22;20784;51.332;12.410;2023-06-10T01:18:10;19.30;99.90
34542;DHT22;20784;51.332;12.410;2023-06-10T01:20:41;19.30;99.90
34542;DHT22;20784;51.332;12.410;2023-06-10T01:23:15;19.20;99.90
34542;DHT22;20784;51.332;12.410;2023-06-10T01:25:51;19.20;99.90
34542;DHT22;20784;51.332;12.410;2023-06-10T01:31:38;19.20;99.90
34542;DHT22;20784;51.332;12.410;2023-06-10T01:34:06;19.10;99.90
34542;DHT22;20784;51.332;12.410;2023-06-10T01:36:36;19.00;99.90
34542;DHT22;20784;51.332;12.410;2023-06-10T01:39:23;18.90;99.90
34542;DHT22;20784;51.332;12.410;2023-06-10T01:41:55;18.90;99.90
34542;DHT22;20784;51.332;12.410;2023-06-10T01:44:24;18.90;99.90
34542;DHT22;20784;51.332;12.410;2023-06-10T01:46:50;18.80;99.90
34542;DHT22;20784;51.332;12.410;2023-06-10T01:49:18;18.80;99.90
34542;DHT22;20784;51.332;12.410;2023-06-10T01:51:57;18.90;99.90
34542;DHT22;20784;51.332;12.410;2023-06-10T01:54:23;18.80;99.90
34542;DHT22;20784;51.332;12.410;2023-06-10T01:56:54;18.80;99.90
34542;DHT22;20784;51.332;12.410;2023-06-10T01:59:23;18.80;99.90
34542;DHT22;20784;51.332;12.410;2023-06-10T02:01:49;18.70;99.90
34542;DHT22;20784;51.332;12.410;2023-06-10T02:04:17;18.60;99.90
34542;DHT22;20784;51.332;12.410;2023-06-10T02:06:53;18.60;99.90
34542;DHT22;20784;51.332;12.410;2023-06-10T02:09:24;18.70;99.90
34542;DHT22;20784;51.332;12.410;2023-06-10T02:11:59;18.60;99.90
34542;DHT22;20784;51.332;12.410;2023-06-10T02:14:24;18.50;99.90
34542;DHT22;20784;51.332;12.410;2023-06-10T02:16:50;18.60;99.90
34542;DHT22;20784;51.332;12.410;2023-06-10T02:19:16;18.50;99.90
34542;DHT22;20784;51.332;12.410;2023-06-10T02:21:45;18.50;99.90
34542;DHT22;20784;51.332;12.410;2023-06-10T02:24:11;18.40;99.90
34542;DHT22;20784;51.332;12.410;2023-06-10T02:26:39;18.40;99.90
34542;DHT22;20784;51.332;12.410;2023-06-10T02:29:09;18.30;99.90
34542;DHT22;20784;51.332;12.410;2023-06-10T02:31:58;18.30;99.90
34542;DHT22;20784;51.332;12.410;2023-06-10T02:34:29;18.30;99.90
34542;DHT22;20784;51.332;12.410;2023-06-10T02:36:54;18.20;99.90
34542;DHT22;20784;51.332;12.410;2023-06-10T02:39:22;18.30;99.90
34542;DHT22;20784;51.332;12.410;2023-06-10T02:41:57;18.30;99.90
34542;DHT22;20784;51.332;12.410;2023-06-10T02:44:23;18.20;99.90
34542;DHT22;20784;51.332;12.410;2023-06-10T02:46:49;18.20;99.90
34542;DHT22;20784;51.332;12.410;2023-06-10T02:49:18;18.20;99.90
34542;DHT22;20784;51.332;12.410;2023-06-10T02:51:44;18.20;99.90
34542;DHT22;20784;51.332;12.410;2023-06-10T02:54:12;18.20;99.90
34542;DHT22;20784;51.332;12.410;2023-06-10T02:56:45;18.10;99.90
34542;DHT22;20784;51.332;12.410;2023-06-10T02:59:16;18.10;99.90
34542;DHT22;20784;51.332;12.410;2023-06-10T03:01:49;18.10;99.90
34542;DHT22;20784;51.332;12.410;2023-06-10T03:04:15;18.10;99.90
34542;DHT22;20784;51.332;12.410;2023-06-10T03:06:41;18.10;99.90
34542;DHT22;20784;51.332;12.410;2023-06-10T03:09:06;18.00;99.90
34542;DHT22;20784;51.332;12.410;2023-06-10T03:11:35;18.00;99.90
34542;DHT22;20784;51.332;12.410;2023-06-10T03:14:01;18.10;99.90
34542;DHT22;20784;51.332;12.410;2023-06-10T03:16:27;18.00;99.90
34542;DHT22;20784;51.332;12.410;2023-06-10T03:18:55;17.90;99.90
34542;DHT22;20784;51.332;12.410;2023-06-10T03:21:21;17.90;99.90
34542;DHT22;20784;51.332;12.410;2023-06-10T03:23:47;17.90;99.90
34542;DHT22;20784;51.332;12.410;2023-06-10T03:26:12;17.80;99.90
34542;DHT22;20784;51.332;12.410;2023-06-10T03:28:40;17.90;99.90
34542;DHT22;20784;51.332;12.410;2023-06-10T03:31:06;17.90;99.90
34542;DHT22;20784;51.332;12.410;2023-06-10T03:33:37;17.80;99.90
34542;DHT22;20784;51.332;12.410;2023-06-10T03:36:04;17.80;99.90
34542;DHT22;20784;51.332;12.410;2023-06-10T03:38:30;17.80;99.90
34542;DHT22;20784;51.332;12.410;2023-06-10T03:40:56;17.80;99.90
34542;DHT22;20784;51.332;12.410;2023-06-10T03:43:22;17.80;99.90
34542;DHT22;20784;51.332;12.410;2023-06-10T03:45:47;17.80;99.90
34542;DHT22;20784;51.332;12.410;2023-06-10T03:48:14;17.80;99.90
34542;DHT22;20784;51.332;12.410;2023-06-10T03:50:40;17.70;99.90
34542;DHT22;20784;51.332;12.410;2023-06-10T03:53:06;17.70;99.90
34542;DHT22;20784;51.332;12.410;2023-06-10T03:55:37;17.70;99.90
34542;DHT22;20784;51.332;12.410;2023-06-10T03:58:03;17.80;99.90
34542;DHT22;20784;51.332;12.410;2023-06-10T04:00:28;17.70;99.90
34542;DHT22;20784;51.332;12.410;2023-06-10T04:02:55;17.80;99.90
34542;DHT22;20784;51.332;12.410;2023-06-10T04:05:24;17.70;99.90
34542;DHT22;20784;51.332;12.410;2023-06-10T04:07:49;17.80;99.90
34542;DHT22;20784;51.332;12.410;2023-06-10T04:10:18;17.80;99.90
34542;DHT22;20784;51.332;12.410;2023-06-10T04:12:59;17.80;99.90
34542;DHT22;20784;51.332;12.410;2023-06-10T04:15:25;17.70;99.90
34542;DHT22;20784;51.332;12.410;2023-06-10T04:17:51;17.70;99.90
34542;DHT22;20784;51.332;12.410;2023-06-10T04:20:17;17.70;99.90
34542;DHT22;20784;51.332;12.410;2023-06-10T04:22:44;17.70;99.90
34542;DHT22;20784;51.332;12.410;2023-06-10T04:25:10;17.80;99.90
34542;DHT22;20784;51.332;12.410;2023-06-10T04:27:48;17.80;99.90
34542;DHT22;20784;51.332;12.410;2023-06-10T04:30:22;17.70;99.90
34542;DHT22;20784;51.332;12.410;2023-06-10T04:32:47;17.80;99.90
34542;DHT22;20784;51.332;12.410;2023-06-10T04:35:19;17.80;99.90
34542;DHT22;20784;51.332;12.410;2023-06-10T04:37:45;17.80;99.90
34542;DHT22;20784;51.332;12.410;2023-06-10T04:40:11;17.80;99.90
34542;DHT22;20784;51.332;12.410;2023-06-10T04:42:36;17.90;99.90
34542;DHT22;20784;51.332;12.410;2023-06-10T04:45:03;18.00;99.90
34542;DHT22;20784;51.332;12.410;2023-06-10T04:47:31;17.80;99.90
34542;DHT22;20784;51.332;12.410;2023-06-10T04:50:03;17.90;99.90
34542;DHT22;20784;51.332;12.410;2023-06-10T04:52:33;17.90;99.90
34542;DHT22;20784;51.332;12.410;2023-06-10T04:54:59;17.90;99.90
34542;DHT22;20784;51.332;12.410;2023-06-10T04:57:27;18.00;99.90
34542;DHT22;20784;51.332;12.410;2023-06-10T04:59:55;18.00;99.90
34542;DHT22;20784;51.332;12.410;2023-06-10T05:02:31;18.00;99.90
34542;DHT22;20784;51.332;12.410;2023-06-10T05:04:56;18.10;99.90
34542;DHT22;20784;51.332;12.410;2023-06-10T05:07:23;18.20;99.90
34542;DHT22;20784;51.332;12.410;2023-06-10T05:09:49;18.20;99.90
34542;DHT22;20784;51.332;12.410;2023-06-10T05:12:14;18.30;99.90
34542;DHT22;20784;51.332;12.410;2023-06-10T05:14:45;18.30;99.90
34542;DHT22;20784;51.332;12.410;2023-06-10T05:17:11;18.20;99.90
34542;DHT22;20784;51.332;12.410;2023-06-10T05:19:40;18.30;99.90
34542;DHT22;20784;51.332;12.410;2023-06-10T05:22:08;18.30;99.90
34542;DHT22;20784;51.332;12.410;2023-06-10T05:24:34;18.30;99.90
34542;DHT22;20784;51.332;12.410;2023-06-10T05:27:00;18.40;99.90
34542;DHT22;20784;51.332;12.410;2023-06-10T05:29:28;18.30;99.90
34542;DHT22;20784;51.332;12.410;2023-06-10T05:31:54;18.30;99.90
34542;DHT22;20784;51.332;12.410;2023-06-10T05:34:22;18.20;99.90
34542;DHT22;20784;51.332;12.410;2023-06-10T05:37:05;18.40;99.90
34542;DHT22;20784;51.332;12.410;2023-06-10T05:39:31;18.30;99.90
34542;DHT22;20784;51.332;12.410;2023-06-10T05:42:00;18.50;99.90
34542;DHT22;20784;51.332;12.410;2023-06-10T05:44:26;18.50;99.90
34542;DHT22;20784;51.332;12.410;2023-06-10T05:46:52;18.50;99.90
34542;DHT22;20784;51.332;12.410;2023-06-10T05:49:18;18.60;99.90
34542;DHT22;20784;51.332;12.410;2023-06-10T05:51:43;18.70;99.90
34542;DHT22;20784;51.332;12.410;2023-06-10T05:54:09;18.70;99.90
34542;DHT22;20784;51.332;12.410;2023-06-10T05:56:34;18.80;99.90
34542;DHT22;20784;51.332;12.410;2023-06-10T05:59:00;18.70;99.90
34542;DHT22;20784;51.332;12.410;2023-06-10T06:01:25;18.80;99.90
34542;DHT22;20784;51.332;12.410;2023-06-10T06:03:51;18.90;99.90
34542;DHT22;20784;51.332;12.410;2023-06-10T06:06:17;18.90;99.90
34542;DHT22;20784;51.332;12.410;2023-06-10T06:08:45;18.90;99.90
34542;DHT22;20784;51.332;12.410;2023-06-10T06:11:11;18.90;99.90
34542;DHT22;20784;51.332;12.410;2023-06-10T06:13:36;19.00;99.90
34542;DHT22;20784;51.332;12.410;2023-06-10T06:16:07;19.00;99.90
34542;DHT22;20784;51.332;12.410;2023-06-10T06:18:33;19.00;99.90
34542;DHT22;20784;51.332;12.410;2023-06-10T06:20:59;19.00;99.90
34542;DHT22;20784;51.332;12.410;2023-06-10T06:23:25;19.00;99.90
34542;DHT22;20784;51.332;12.410;2023-06-10T06:25:51;19.00;99.90
34542;DHT22;20784;51.332;12.410;2023-06-10T06:28:17;18.90;99.90
34542;DHT22;20784;51.332;12.410;2023-06-10T06:30:44;19.10;99.90
34542;DHT22;20784;51.332;12.410;2023-06-10T06:33:12;19.20;99.90
34542;DHT22;20784;51.332;12.410;2023-06-10T06:35:38;19.20;99.90
34542;DHT22;20784;51.332;12.410;2023-06-10T06:38:06;19.30;99.90
34542;DHT22;20784;51.332;12.410;2023-06-10T06:40:31;19.40;99.90
34542;DHT22;20784;51.332;12.410;2023-06-10T06:43:00;19.20;99.90
34542;DHT22;20784;51.332;12.410;2023-06-10T06:45:25;19.30;99.90
34542;DHT22;20784;51.332;12.410;2023-06-10T06:47:51;19.40;99.90
34542;DHT22;20784;51.332;12.410;2023-06-10T06:50:16;19.50;99.90
34542;DHT22;20784;51.332;12.410;2023-06-10T06:52:42;19.60;99.90
34542;DHT22;20784;51.332;12.410;2023-06-10T06:55:08;19.80;99.90
34542;DHT22;20784;51.332;12.410;2023-06-10T06:57:36;19.70;99.90
34542;DHT22;20784;51.332;12.410;2023-06-10T07:00:02;19.60;99.90
34542;DHT22;20784;51.332;12.410;2023-06-10T07:02:28;19.70;99.90
34542;DHT22;20784;51.332;12.410;2023-06-10T07:04:53;19.90;99.90
34542;DHT22;20784;51.332;12.410;2023-06-10T07:07:21;20.00;99.90
34542;DHT22;20784;51.332;12.410;2023-06-10T07:09:47;20.10;99.90
34542;DHT22;20784;51.332;12.410;2023-06-10T07:12:20;20.10;99.90
34542;DHT22;20784;51.332;12.410;2023-06-10T07:15:08;20.20;99.90
34542;DHT22;20784;51.332;12.410;2023-06-10T07:17:36;20.30;99.90
34542;DHT22;20784;51.332;12.410;2023-06-10T07:20:17;20.30;99.90
34542;DHT22;20784;51.332;12.410;2023-06-10T07:22:52;20.30;99.90
34542;DHT22;20784;51.332;12.410;2023-06-10T07:25:26;20.40;99.90
34542;DHT22;20784;51.332;12.410;2023-06-10T07:27:52;20.50;99.90
34542;DHT22;20784;51.332;12.410;2023-06-10T07:30:18;20.60;99.90
34542;DHT22;20784;51.332;12.410;2023-06-10T07:32:50;20.80;99.90
34542;DHT22;20784;51.332;12.410;2023-06-10T07:35:24;20.90;99.90
34542;DHT22;20784;51.332;12.410;2023-06-10T07:37:56;21.00;99.90
34542;DHT22;20784;51.332;12.410;2023-06-10T07:40:22;21.00;99.90
34542;DHT22;20784;51.332;12.410;2023-06-10T07:42:50;21.00;99.90
34542;DHT22;20784;51.332;12.410;2023-06-10T07:45:24;21.30;99.90
34542;DHT22;20784;51.332;12.410;2023-06-10T07:48:03;21.40;99.90
34542;DHT22;20784;51.332;12.410;2023-06-10T07:50:31;21.50;99.90
34542;DHT22;20784;51.332;12.410;2023-06-10T07:53:00;21.70;99.90
34542;DHT22;20784;51.332;12.410;2023-06-10T07:55:31;21.70;99.90
34542;DHT22;20784;51.332;12.410;2023-06-10T07:57:59;21.80;99.90
34542;DHT22;20784;51.332;12.410;2023-06-10T08:00:27;22.00;99.90
34542;DHT22;20784;51.332;12.410;2023-06-10T08:02:52;22.00;99.90
34542;DHT22;20784;51.332;12.410;2023-06-10T08:05:20;22.20;99.90
34542;DHT22;20784;51.332;12.410;2023-06-10T08:07:48;22.20;99.90
34542;DHT22;20784;51.332;12.410;2023-06-10T08:10:23;22.30;99.90
34542;DHT22;20784;51.332;12.410;2023-06-10T08:12:49;22.40;99.90
34542;DHT22;20784;51.332;12.410;2023-06-10T08:15:25;22.60;99.90
34542;DHT22;20784;51.332;12.410;2023-06-10T08:17:57;22.70;99.90
34542;DHT22;20784;51.332;12.410;2023-06-10T08:20:29;22.80;99.90
34542;DHT22;20784;51.332;12.410;2023-06-10T08:22:57;22.80;99.90
34542;DHT22;20784;51.332;12.410;2023-06-10T08:25:23;23.00;99.90
34542;DHT22;20784;51.332;12.410;2023-06-10T08:27:48;23.20;99.90
34542;DHT22;20784;51.332;12.410;2023-06-10T08:30:17;23.40;99.90
34542;DHT22;20784;51.332;12.410;2023-06-10T08:32:46;23.60;99.90
34542;DHT22;20784;51.332;12.410;2023-06-10T08:35:25;23.80;99.90
34542;DHT22;20784;51.332;12.410;2023-06-10T08:37:50;24.20;99.90
34542;DHT22;20784;51.332;12.410;2023-06-10T08:40:16;24.40;99.90
34542;DHT22;20784;51.332;12.410;2023-06-10T08:45:16;24.70;99.90
34542;DHT22;20784;51.332;12.410;2023-06-10T08:47:45;24.90;99.90
34542;DHT22;20784;51.332;12.410;2023-06-10T08:50:12;25.10;99.90
34542;DHT22;20784;51.332;12.410;2023-06-10T08:52:42;25.20;99.90
34542;DHT22;20784;51.332;12.410;2023-06-10T08:55:18;25.20;99.90
34542;DHT22;20784;51.332;12.410;2023-06-10T08:57:51;25.30;99.90
34542;DHT22;20784;51.332;12.410;2023-06-10T09:00:16;25.40;99.90
34542;DHT22;20784;51.332;12.410;2023-06-10T09:02:43;25.60;99.90
34542;DHT22;20784;51.332;12.410;2023-06-10T09:05:09;25.90;99.90
34542;DHT22;20784;51.332;12.410;2023-06-10T09:07:36;26.10;99.90
34542;DHT22;20784;51.332;12.410;2023-06-10T09:10:05;26.30;99.90
34542;DHT22;20784;51.332;12.410;2023-06-10T09:12:33;26.20;99.90
34542;DHT22;20784;51.332;12.410;2023-06-10T09:14:59;26.20;99.90
34542;DHT22;20784;51.332;12.410;2023-06-10T09:17:26;26.10;99.90
34542;DHT22;20784;51.332;12.410;2023-06-10T09:19:55;26.20;99.90
34542;DHT22;20784;51.332;12.410;2023-06-10T09:22:25;26.40;99.90
34542;DHT22;20784;51.332;12.410;2023-06-10T09:25:01;26.50;99.90
34542;DHT22;20784;51.332;12.410;2023-06-10T09:27:32;26.50;99.90
34542;DHT22;20784;51.332;12.410;2023-06-10T09:29:58;26.50;99.90
34542;DHT22;20784;51.332;12.410;2023-06-10T09:32:24;26.70;99.90
34542;DHT22;20784;51.332;12.410;2023-06-10T09:34:50;26.90;99.90
34542;DHT22;20784;51.332;12.410;2023-06-10T09:37:25;27.00;99.90
34542;DHT22;20784;51.332;12.410;2023-06-10T09:40:07;26.90;99.90
34542;DHT22;20784;51.332;12.410;2023-06-10T09:42:35;26.90;99.90
34542;DHT22;20784;51.332;12.410;2023-06-10T09:45:05;27.10;99.90
34542;DHT22;20784;51.332;12.410;2023-06-10T09:47:36;27.20;99.90
34542;DHT22;20784;51.332;12.410;2023-06-10T09:50:05;27.20;99.90
34542;DHT22;20784;51.332;12.410;2023-06-10T09:52:30;27.50;99.90
34542;DHT22;20784;51.332;12.410;2023-06-10T09:55:01;27.60;99.90
34542;DHT22;20784;51.332;12.410;2023-06-10T09:57:33;27.70;99.90
34542;DHT22;20784;51.332;12.410;2023-06-10T10:00:03;27.90;99.90
34542;DHT22;20784;51.332;12.410;2023-06-10T10:02:29;27.90;99.90
34542;DHT22;20784;51.332;12.410;2023-06-10T10:05:02;28.10;99.90
34542;DHT22;20784;51.332;12.410;2023-06-10T10:07:33;27.80;99.90
34542;DHT22;20784;51.332;12.410;2023-06-10T10:09:59;28.00;99.90
34542;DHT22;20784;51.332;12.410;2023-06-10T10:12:28;28.00;99.90
34542;DHT22;20784;51.332;12.410;2023-06-10T10:14:55;28.20;99.90
34542;DHT22;20784;51.332;12.410;2023-06-10T10:17:22;28.10;99.90
34542;DHT22;20784;51.332;12.410;2023-06-10T10:19:54;28.20;99.90
34542;DHT22;20784;51.332;12.410;2023-06-10T10:22:41;28.20;99.90
34542;DHT22;20784;51.332;12.410;2023-06-10T10:25:13;28.30;99.90
34542;DHT22;20784;51.332;12.410;2023-06-10T10:30:44;28.40;99.90
34542;DHT22;20784;51.332;12.410;2023-06-10T10:33:18;28.50;99.90
34542;DHT22;20784;51.332;12.410;2023-06-10T10:35:45;28.50;99.90
34542;DHT22;20784;51.332;12.410;2023-06-10T10:38:12;28.70;99.90
34542;DHT22;20784;51.332;12.410;2023-06-10T10:40:38;28.70;99.90
34542;DHT22;20784;51.332;12.410;2023-06-10T10:43:05;29.00;99.90
34542;DHT22;20784;51.332;12.410;2023-06-10T10:45:33;29.20;99.90
34542;DHT22;20784;51.332;12.410;2023-06-10T10:48:11;29.50;99.90
34542;DHT22;20784;51.332;12.410;2023-06-10T10:50:56;29.40;99.90
34542;DHT22;20784;51.332;12.410;2023-06-10T10:53:24;29.60;99.90
34542;DHT22;20784;51.332;12.410;2023-06-10T10:56:04;29.60;99.90
34542;DHT22;20784;51.332;12.410;2023-06-10T10:58:32;29.70;99.90
34542;DHT22;20784;51.332;12.410;2023-06-10T11:01:10;29.90;99.90
34542;DHT22;20784;51.332;12.410;2023-06-10T11:03:45;29.90;99.90
34542;DHT22;20784;51.332;12.410;2023-06-10T11:06:15;30.10;99.90
34542;DHT22;20784;51.332;12.410;2023-06-10T11:08:49;30.00;99.90
34542;DHT22;20784;51.332;12.410;2023-06-10T11:11:25;30.00;99.90
34542;DHT22;20784;51.332;12.410;2023-06-10T11:14:14;30.30;99.90
34542;DHT22;20784;51.332;12.410;2023-06-10T11:16:51;30.30;99.90
34542;DHT22;20784;51.332;12.410;2023-06-10T11:19:37;30.20;99.90
34542;DHT22;20784;51.332;12.410;2023-06-10T11:22:06;30.20;99.90
34542;DHT22;20784;51.332;12.410;2023-06-10T11:24:32;30.20;99.90
34542;DHT22;20784;51.332;12.410;2023-06-10T11:27:17;30.30;99.90
34542;DHT22;20784;51.332;12.410;2023-06-10T11:32:30;30.70;99.90
34542;DHT22;20784;51.332;12.410;2023-06-10T11:34:59;30.60;99.90
34542;DHT22;20784;51.332;12.410;2023-06-10T11:37:25;30.20;99.90
34542;DHT22;20784;51.332;12.410;2023-06-10T11:39:55;30.30;99.90
34542;DHT22;20784;51.332;12.410;2023-06-10T11:42:22;30.40;99.90
34542;DHT22;20784;51.332;12.410;2023-06-10T11:44:49;30.30;99.90
34542;DHT22;20784;51.332;12.410;2023-06-10T11:47:15;30.40;99.90
34542;DHT22;20784;51.332;12.410;2023-06-10T11:49:41;30.20;99.90
34542;DHT22;20784;51.332;12.410;2023-06-10T11:52:07;30.40;99.90
34542;DHT22;20784;51.332;12.410;2023-06-10T11:54:36;30.50;99.90
34542;DHT22;20784;51.332;12.410;2023-06-10T11:57:02;30.80;99.90
34542;DHT22;20784;51.332;12.410;2023-06-10T11:59:33;31.00;99.90
34542;DHT22;20784;51.332;12.410;2023-06-10T12:02:01;31.10;99.90
34542;DHT22;20784;51.332;12.410;2023-06-10T12:04:27;31.10;99.90
34542;DHT22;20784;51.332;12.410;2023-06-10T12:06:58;31.30;99.90
34542;DHT22;20784;51.332;12.410;2023-06-10T12:09:29;31.20;99.90
34542;DHT22;20784;51.332;12.410;2023-06-10T12:12:05;30.80;99.90
34542;DHT22;20784;51.332;12.410;2023-06-10T12:14:50;30.60;99.90
34542;DHT22;20784;51.332;12.410;2023-06-10T12:17:21;30.30;99.90
34542;DHT22;20784;51.332;12.410;2023-06-10T12:19:48;30.30;99.90
34542;DHT22;20784;51.332;12.410;2023-06-10T12:22:14;29.90;99.90
34542;DHT22;20784;51.332;12.410;2023-06-10T12:25:06;29.70;99.90
34542;DHT22;20784;51.332;12.410;2023-06-10T12:27:33;29.90;99.90
34542;DHT22;20784;51.332;12.410;2023-06-10T12:30:03;29.90;99.90
34542;DHT22;20784;51.332;12.410;2023-06-10T12:32:41;29.80;99.90
34542;DHT22;20784;51.332;12.410;2023-06-10T12:35:15;30.00;99.90
34542;DHT22;20784;51.332;12.410;2023-06-10T12:37:41;30.00;99.90
34542;DHT22;20784;51.332;12.410;2023-06-10T12:40:12;30.20;99.90
34542;DHT22;20784;51.332;12.410;2023-06-10T12:42:41;30.30;99.90
34542;DHT22;20784;51.332;12.410;2023-06-10T12:45:07;30.50;99.90
34542;DHT22;20784;51.332;12.410;2023-06-10T12:47:37;30.70;99.90
34542;DHT22;20784;51.332;12.410;2023-06-10T12:50:07;30.80;99.40
34542;DHT22;20784;51.332;12.410;2023-06-10T12:55:12;30.80;99.90
34542;DHT22;20784;51.332;12.410;2023-06-10T12:57:37;30.20;98.80
34542;DHT22;20784;51.332;12.410;2023-06-10T13:00:03;30.30;98.50
34542;DHT22;20784;51.332;12.410;2023-06-10T13:02:36;30.10;98.40
34542;DHT22;20784;51.332;12.410;2023-06-10T13:05:02;30.30;99.90
34542;DHT22;20784;51.332;12.410;2023-06-10T13:07:28;30.10;99.90
34542;DHT22;20784;51.332;12.410;2023-06-10T13:09:53;29.70;99.90
34542;DHT22;20784;51.332;12.410;2023-06-10T13:12:19;29.50;99.90
34542;DHT22;20784;51.332;12.410;2023-06-10T13:14:47;29.00;99.90
34542;DHT22;20784;51.332;12.410;2023-06-10T13:17:13;28.70;99.90
34542;DHT22;20784;51.332;12.410;2023-06-10T13:19:38;28.50;99.90
34542;DHT22;20784;51.332;12.410;2023-06-10T13:22:04;28.20;99.90
34542;DHT22;20784;51.332;12.410;2023-06-10T13:24:29;27.70;99.90
34542;DHT22;20784;51.332;12.410;2023-06-10T13:26:55;27.50;99.90
34542;DHT22;20784;51.332;12.410;2023-06-10T13:29:24;27.00;99.90
34542;DHT22;20784;51.332;12.410;2023-06-10T13:31:55;26.70;99.90
34542;DHT22;20784;51.332;12.410;2023-06-10T13:34:26;26.50;99.90
34542;DHT22;20784;51.332;12.410;2023-06-10T13:36:54;26.20;99.90
34542;DHT22;20784;51.332;12.410;2023-06-10T13:39:22;26.00;99.90
34542;DHT22;20784;51.332;12.410;2023-06-10T13:41:48;25.80;99.90
34542;DHT22;20784;51.332;12.410;2023-06-10T13:44:13;25.80;99.90
34542;DHT22;20784;51.332;12.410;2023-06-10T13:46:39;25.70;99.90
34542;DHT22;20784;51.332;12.410;2023-06-10T13:49:05;25.60;99.90
34542;DHT22;20784;51.332;12.410;2023-06-10T13:51:32;25.60;99.90
34542;DHT22;20784;51.332;12.410;2023-06-10T13:54:16;25.70;99.90
34542;DHT22;20784;51.332;12.410;2023-06-10T13:56:42;25.90;99.90
34542;DHT22;20784;51.332;12.410;2023-06-10T13:59:07;26.00;99.90
34542;DHT22;20784;51.332;12.410;2023-06-10T14:01:33;26.10;99.90
34542;DHT22;20784;51.332;12.410;2023-06-10T14:04:08;26.20;99.90
34542;DHT22;20784;51.332;12.410;2023-06-10T14:06:34;26.20;99.90
34542;DHT22;20784;51.332;12.410;2023-06-10T14:09:03;26.20;99.90
34542;DHT22;20784;51.332;12.410;2023-06-10T14:11:28;26.30;99.90
34542;DHT22;20784;51.332;12.410;2023-06-10T14:13:54;26.40;99.90
34542;DHT22;20784;51.332;12.410;2023-06-10T14:16:21;26.50;99.90
34542;DHT22;20784;51.332;12.410;2023-06-10T14:18:47;26.60;99.90
34542;DHT22;20784;51.332;12.410;2023-06-10T14:21:19;26.70;99.90
34542;DHT22;20784;51.332;12.410;2023-06-10T14:23:51;26.90;99.90
34542;DHT22;20784;51.332;12.410;2023-06-10T14:26:18;26.90;99.90
34542;DHT22;20784;51.332;12.410;2023-06-10T14:29:00;26.70;98.60
34542;DHT22;20784;51.332;12.410;2023-06-10T14:31:30;26.70;99.20
34542;DHT22;20784;51.332;12.410;2023-06-10T14:34:23;26.70;98.70
34542;DHT22;20784;51.332;12.410;2023-06-10T14:37:30;26.60;98.50
34542;DHT22;20784;51.332;12.410;2023-06-10T14:40:16;26.70;98.50
34542;DHT22;20784;51.332;12.410;2023-06-10T14:45:37;26.60;97.80
34542;DHT22;20784;51.332;12.410;2023-06-10T14:48:04;26.50;97.50
34542;DHT22;20784;51.332;12.410;2023-06-10T14:50:36;26.50;98.20
34542;DHT22;20784;51.332;12.410;2023-06-10T14:53:02;26.60;98.40
34542;DHT22;20784;51.332;12.410;2023-06-10T14:55:27;26.70;98.20
34542;DHT22;20784;51.332;12.410;2023-06-10T14:57:56;26.80;98.70
34542;DHT22;20784;51.332;12.410;2023-06-10T15:00:23;26.90;99.30
34542;DHT22;20784;51.332;12.410;2023-06-10T15:02:50;26.90;99.90
34542;DHT22;20784;51.332;12.410;2023-06-10T15:08:22;26.70;99.90
34542;DHT22;20784;51.332;12.410;2023-06-10T15:11:10;26.80;99.90
34542;DHT22;20784;51.332;12.410;2023-06-10T15:13:53;26.80;99.90
34542;DHT22;20784;51.332;12.410;2023-06-10T15:16:41;26.90;99.90
34542;DHT22;20784;51.332;12.410;2023-06-10T15:22:26;26.80;99.90
34542;DHT22;20784;51.332;12.410;2023-06-10T15:27:51;26.80;99.90
34542;DHT22;20784;51.332;12.410;2023-06-10T15:30:30;26.90;99.90
34542;DHT22;20784;51.332;12.410;2023-06-10T15:33:16;27.00;99.90
34542;DHT22;20784;51.332;12.410;2023-06-10T15:35:49;27.10;99.90
34542;DHT22;20784;51.332;12.410;2023-06-10T15:38:23;27.20;99.90
34542;DHT22;20784;51.332;12.410;2023-06-10T15:41:04;27.30;99.90
34542;DHT22;20784;51.332;12.410;2023-06-10T15:43:35;27.40;99.90
34542;DHT22;20784;51.332;12.410;2023-06-10T15:46:01;27.50;99.90
34542;DHT22;20784;51.332;12.410;2023-06-10T15:48:30;27.50;99.90
34542;DHT22;20784;51.332;12.410;2023-06-10T15:51:16;27.50;99.90
34542;DHT22;20784;51.332;12.410;2023-06-10T15:54:22;27.50;99.90
34542;DHT22;20784;51.332;12.410;2023-06-10T15:57:01;27.60;99.90